Penfield, Illinois
Current Conditions -  °F | °C
As of 5:50 AM on Saturday 20 Dec 2014 (Local Time) from KTIP Reporting Station
Haze Haze  
Wind Chill: 27°   Ceiling: 4700
Heat Index: 27°   Visibility: 5mi
Dew Point: 25°   Wind: 0mph
Humidity: 92%   Direction: NA
Pressure: 30.28"   Gusts: NA
Location:  40.3°N, 87.95°W
Report Text: KTIP 201150Z AUTO 00000KT 5SM BR OVC047 M03/M04 A3028 RMK AO2 T10271038 11020 21032
Loading
Personal Weather Stations






























Interactive Weather Map New forecast layout! Learn more

10-Day Weather Forecast

Advertisements
Track Severe Weather on mobile